sensor_id;sensor_type;location;lat;lon;timestamp;P1;durP1;ratioP1;P2;durP2;ratioP2
74064;SDS011;62421;51.412;5.432;2023-03-22T00:01:09;8.10;;;3.00;;
74064;SDS011;62421;51.412;5.432;2023-03-22T00:03:39;8.47;;;3.10;;
74064;SDS011;62421;51.412;5.432;2023-03-22T00:06:05;12.80;;;3.92;;
74064;SDS011;62421;51.412;5.432;2023-03-22T00:08:31;8.57;;;3.10;;
74064;SDS011;62421;51.412;5.432;2023-03-22T00:10:56;9.50;;;3.43;;
74064;SDS011;62421;51.412;5.432;2023-03-22T00:13:22;10.33;;;3.73;;
74064;SDS011;62421;51.412;5.432;2023-03-22T00:15:47;12.63;;;3.80;;
74064;SDS011;62421;51.412;5.432;2023-03-22T00:18:16;7.57;;;4.05;;
74064;SDS011;62421;51.412;5.432;2023-03-22T00:20:46;12.30;;;3.33;;
74064;SDS011;62421;51.412;5.432;2023-03-22T00:23:16;15.25;;;5.07;;
74064;SDS011;62421;51.412;5.432;2023-03-22T00:25:42;11.98;;;4.13;;
74064;SDS011;62421;51.412;5.432;2023-03-22T00:28:09;11.93;;;4.65;;
74064;SDS011;62421;51.412;5.432;2023-03-22T00:30:35;10.60;;;3.93;;
74064;SDS011;62421;51.412;5.432;2023-03-22T00:33:00;14.17;;;4.30;;
74064;SDS011;62421;51.412;5.432;2023-03-22T00:35:25;10.82;;;4.30;;
74064;SDS011;62421;51.412;5.432;2023-03-22T00:37:51;14.70;;;4.43;;
74064;SDS011;62421;51.412;5.432;2023-03-22T00:40:16;10.67;;;4.63;;
74064;SDS011;62421;51.412;5.432;2023-03-22T00:42:42;12.73;;;4.77;;
74064;SDS011;62421;51.412;5.432;2023-03-22T00:45:09;11.52;;;4.88;;
74064;SDS011;62421;51.412;5.432;2023-03-22T00:47:36;12.70;;;5.30;;
74064;SDS011;62421;51.412;5.432;2023-03-22T00:50:02;12.57;;;5.33;;
74064;SDS011;62421;51.412;5.432;2023-03-22T00:52:28;14.95;;;5.65;;
74064;SDS011;62421;51.412;5.432;2023-03-22T00:54:54;12.53;;;4.90;;
74064;SDS011;62421;51.412;5.432;2023-03-22T00:57:19;19.30;;;5.88;;
74064;SDS011;62421;51.412;5.432;2023-03-22T00:59:45;19.10;;;6.63;;
74064;SDS011;62421;51.412;5.432;2023-03-22T01:02:11;17.90;;;6.27;;
74064;SDS011;62421;51.412;5.432;2023-03-22T01:04:40;14.20;;;6.18;;
74064;SDS011;62421;51.412;5.432;2023-03-22T01:07:14;12.70;;;6.32;;
74064;SDS011;62421;51.412;5.432;2023-03-22T01:09:48;15.90;;;5.90;;
74064;SDS011;62421;51.412;5.432;2023-03-22T01:12:14;12.57;;;7.13;;
74064;SDS011;62421;51.412;5.432;2023-03-22T01:14:41;15.20;;;7.20;;
74064;SDS011;62421;51.412;5.432;2023-03-22T01:17:07;22.15;;;7.97;;
74064;SDS011;62421;51.412;5.432;2023-03-22T01:19:33;19.33;;;8.90;;
74064;SDS011;62421;51.412;5.432;2023-03-22T01:21:59;17.60;;;7.97;;
74064;SDS011;62421;51.412;5.432;2023-03-22T01:24:25;21.58;;;9.07;;
74064;SDS011;62421;51.412;5.432;2023-03-22T01:26:50;15.87;;;9.30;;
74064;SDS011;62421;51.412;5.432;2023-03-22T01:29:16;18.60;;;8.67;;
74064;SDS011;62421;51.412;5.432;2023-03-22T01:31:42;19.50;;;9.35;;
74064;SDS011;62421;51.412;5.432;2023-03-22T01:34:07;21.53;;;9.77;;
74064;SDS011;62421;51.412;5.432;2023-03-22T01:36:33;23.30;;;11.27;;
74064;SDS011;62421;51.412;5.432;2023-03-22T01:38:58;19.40;;;9.07;;
74064;SDS011;62421;51.412;5.432;2023-03-22T01:41:24;20.20;;;9.97;;
74064;SDS011;62421;51.412;5.432;2023-03-22T01:46:36;22.92;;;10.00;;
74064;SDS011;62421;51.412;5.432;2023-03-22T01:49:03;21.67;;;9.75;;
74064;SDS011;62421;51.412;5.432;2023-03-22T01:51:30;17.10;;;9.43;;
74064;SDS011;62421;51.412;5.432;2023-03-22T01:54:00;22.97;;;10.17;;
74064;SDS011;62421;51.412;5.432;2023-03-22T01:56:30;24.45;;;9.95;;
74064;SDS011;62421;51.412;5.432;2023-03-22T01:58:58;18.08;;;8.95;;
74064;SDS011;62421;51.412;5.432;2023-03-22T02:01:25;20.08;;;9.13;;
74064;SDS011;62421;51.412;5.432;2023-03-22T02:06:19;16.57;;;8.63;;
74064;SDS011;62421;51.412;5.432;2023-03-22T02:08:46;15.77;;;8.70;;
74064;SDS011;62421;51.412;5.432;2023-03-22T02:11:16;20.42;;;8.60;;
74064;SDS011;62421;51.412;5.432;2023-03-22T02:14:06;14.40;;;8.00;;
74064;SDS011;62421;51.412;5.432;2023-03-22T02:20:15;14.90;;;8.03;;
74064;SDS011;62421;51.412;5.432;2023-03-22T02:28:59;16.65;;;7.30;;
74064;SDS011;62421;51.412;5.432;2023-03-22T02:35:02;18.70;;;6.97;;
74064;SDS011;62421;51.412;5.432;2023-03-22T02:43:23;15.75;;;5.97;;
74064;SDS011;62421;51.412;5.432;2023-03-22T02:51:25;12.48;;;5.90;;
74064;SDS011;62421;51.412;5.432;2023-03-22T02:56:47;10.25;;;5.40;;
74064;SDS011;62421;51.412;5.432;2023-03-22T02:59:17;13.65;;;5.93;;
74064;SDS011;62421;51.412;5.432;2023-03-22T03:01:53;15.37;;;5.63;;
74064;SDS011;62421;51.412;5.432;2023-03-22T03:04:25;9.50;;;5.35;;
74064;SDS011;62421;51.412;5.432;2023-03-22T03:06:56;15.82;;;5.82;;
74064;SDS011;62421;51.412;5.432;2023-03-22T03:09:26;11.32;;;5.75;;
74064;SDS011;62421;51.412;5.432;2023-03-22T03:11:53;10.65;;;5.05;;
74064;SDS011;62421;51.412;5.432;2023-03-22T03:14:26;13.13;;;5.00;;
74064;SDS011;62421;51.412;5.432;2023-03-22T03:19:47;11.02;;;5.00;;
74064;SDS011;62421;51.412;5.432;2023-03-22T03:25:37;12.38;;;4.68;;
74064;SDS011;62421;51.412;5.432;2023-03-22T03:31:12;13.65;;;5.70;;
74064;SDS011;62421;51.412;5.432;2023-03-22T03:36:34;15.53;;;4.80;;
74064;SDS011;62421;51.412;5.432;2023-03-22T03:39:03;10.82;;;4.50;;
74064;SDS011;62421;51.412;5.432;2023-03-22T03:41:33;14.82;;;4.90;;
74064;SDS011;62421;51.412;5.432;2023-03-22T03:43:58;12.98;;;5.78;;
74064;SDS011;62421;51.412;5.432;2023-03-22T03:46:24;12.25;;;4.90;;
74064;SDS011;62421;51.412;5.432;2023-03-22T03:48:50;11.18;;;4.82;;
74064;SDS011;62421;51.412;5.432;2023-03-22T03:51:17;9.63;;;4.20;;
74064;SDS011;62421;51.412;5.432;2023-03-22T03:53:42;8.45;;;4.28;;
74064;SDS011;62421;51.412;5.432;2023-03-22T03:56:07;11.13;;;4.33;;
74064;SDS011;62421;51.412;5.432;2023-03-22T03:58:33;12.20;;;4.37;;
74064;SDS011;62421;51.412;5.432;2023-03-22T04:00:58;10.13;;;4.27;;
74064;SDS011;62421;51.412;5.432;2023-03-22T04:03:24;8.63;;;4.30;;
74064;SDS011;62421;51.412;5.432;2023-03-22T04:05:49;10.82;;;4.57;;
74064;SDS011;62421;51.412;5.432;2023-03-22T04:08:15;17.70;;;4.43;;
74064;SDS011;62421;51.412;5.432;2023-03-22T04:10:40;12.50;;;4.73;;
74064;SDS011;62421;51.412;5.432;2023-03-22T04:13:06;11.17;;;4.30;;
74064;SDS011;62421;51.412;5.432;2023-03-22T04:15:31;10.20;;;4.32;;
74064;SDS011;62421;51.412;5.432;2023-03-22T04:17:57;15.43;;;4.60;;
74064;SDS011;62421;51.412;5.432;2023-03-22T04:20:23;8.93;;;4.37;;
74064;SDS011;62421;51.412;5.432;2023-03-22T04:22:50;9.95;;;4.03;;
74064;SDS011;62421;51.412;5.432;2023-03-22T04:25:16;6.82;;;3.75;;
74064;SDS011;62421;51.412;5.432;2023-03-22T04:27:43;10.68;;;4.30;;
74064;SDS011;62421;51.412;5.432;2023-03-22T04:30:13;12.80;;;4.75;;
74064;SDS011;62421;51.412;5.432;2023-03-22T04:32:46;11.60;;;3.27;;
74064;SDS011;62421;51.412;5.432;2023-03-22T04:35:12;9.43;;;3.95;;
74064;SDS011;62421;51.412;5.432;2023-03-22T04:37:38;10.70;;;4.90;;
74064;SDS011;62421;51.412;5.432;2023-03-22T04:40:03;11.77;;;4.80;;
74064;SDS011;62421;51.412;5.432;2023-03-22T04:42:32;12.38;;;4.07;;
74064;SDS011;62421;51.412;5.432;2023-03-22T04:44:58;11.70;;;5.07;;
74064;SDS011;62421;51.412;5.432;2023-03-22T04:47:24;14.27;;;3.78;;
74064;SDS011;62421;51.412;5.432;2023-03-22T04:49:50;8.03;;;4.00;;
74064;SDS011;62421;51.412;5.432;2023-03-22T04:52:15;12.95;;;4.45;;
74064;SDS011;62421;51.412;5.432;2023-03-22T04:54:41;9.80;;;3.50;;
74064;SDS011;62421;51.412;5.432;2023-03-22T04:57:06;12.30;;;3.40;;
74064;SDS011;62421;51.412;5.432;2023-03-22T04:59:31;11.77;;;3.83;;
74064;SDS011;62421;51.412;5.432;2023-03-22T05:01:57;12.80;;;3.33;;
74064;SDS011;62421;51.412;5.432;2023-03-22T05:04:23;10.93;;;3.40;;
74064;SDS011;62421;51.412;5.432;2023-03-22T05:06:48;10.20;;;3.38;;
74064;SDS011;62421;51.412;5.432;2023-03-22T05:09:14;14.73;;;4.07;;
74064;SDS011;62421;51.412;5.432;2023-03-22T05:11:40;12.67;;;3.73;;
74064;SDS011;62421;51.412;5.432;2023-03-22T05:14:06;8.18;;;2.75;;
74064;SDS011;62421;51.412;5.432;2023-03-22T05:16:32;15.03;;;3.63;;
74064;SDS011;62421;51.412;5.432;2023-03-22T05:18:58;10.70;;;4.07;;
74064;SDS011;62421;51.412;5.432;2023-03-22T05:21:26;10.68;;;3.38;;
74064;SDS011;62421;51.412;5.432;2023-03-22T05:23:56;7.07;;;3.20;;
74064;SDS011;62421;51.412;5.432;2023-03-22T05:26:23;12.02;;;3.03;;
74064;SDS011;62421;51.412;5.432;2023-03-22T05:28:50;9.90;;;3.17;;
74064;SDS011;62421;51.412;5.432;2023-03-22T05:31:19;9.40;;;3.40;;
74064;SDS011;62421;51.412;5.432;2023-03-22T05:33:49;7.90;;;3.17;;
74064;SDS011;62421;51.412;5.432;2023-03-22T05:36:18;13.03;;;3.50;;
74064;SDS011;62421;51.412;5.432;2023-03-22T05:38:45;8.90;;;3.28;;
74064;SDS011;62421;51.412;5.432;2023-03-22T05:41:11;8.15;;;3.08;;
74064;SDS011;62421;51.412;5.432;2023-03-22T05:43:37;8.83;;;3.00;;
74064;SDS011;62421;51.412;5.432;2023-03-22T05:46:04;11.88;;;3.70;;
74064;SDS011;62421;51.412;5.432;2023-03-22T05:48:33;10.68;;;3.53;;
74064;SDS011;62421;51.412;5.432;2023-03-22T05:51:00;9.47;;;3.07;;
74064;SDS011;62421;51.412;5.432;2023-03-22T05:53:27;10.18;;;3.85;;
74064;SDS011;62421;51.412;5.432;2023-03-22T05:55:53;11.40;;;3.38;;
74064;SDS011;62421;51.412;5.432;2023-03-22T05:58:21;11.00;;;2.80;;
74064;SDS011;62421;51.412;5.432;2023-03-22T06:00:48;10.02;;;3.63;;
74064;SDS011;62421;51.412;5.432;2023-03-22T06:03:15;11.17;;;4.20;;
74064;SDS011;62421;51.412;5.432;2023-03-22T06:05:40;12.30;;;3.63;;
74064;SDS011;62421;51.412;5.432;2023-03-22T06:08:06;7.23;;;3.17;;
74064;SDS011;62421;51.412;5.432;2023-03-22T06:10:31;8.50;;;2.60;;
74064;SDS011;62421;51.412;5.432;2023-03-22T06:12:57;18.83;;;4.27;;
74064;SDS011;62421;51.412;5.432;2023-03-22T06:15:22;13.57;;;3.67;;
74064;SDS011;62421;51.412;5.432;2023-03-22T06:17:47;9.60;;;3.00;;
74064;SDS011;62421;51.412;5.432;2023-03-22T06:20:13;12.48;;;3.75;;
74064;SDS011;62421;51.412;5.432;2023-03-22T06:22:39;10.70;;;3.97;;
74064;SDS011;62421;51.412;5.432;2023-03-22T06:25:05;11.25;;;3.28;;
74064;SDS011;62421;51.412;5.432;2023-03-22T06:27:32;9.35;;;4.22;;
74064;SDS011;62421;51.412;5.432;2023-03-22T06:29:57;13.80;;;4.67;;
74064;SDS011;62421;51.412;5.432;2023-03-22T06:32:23;11.80;;;3.90;;
74064;SDS011;62421;51.412;5.432;2023-03-22T06:34:50;14.05;;;4.00;;
74064;SDS011;62421;51.412;5.432;2023-03-22T06:37:16;13.40;;;4.05;;
74064;SDS011;62421;51.412;5.432;2023-03-22T06:39:42;11.80;;;3.20;;
74064;SDS011;62421;51.412;5.432;2023-03-22T06:42:07;8.87;;;4.10;;
74064;SDS011;62421;51.412;5.432;2023-03-22T06:44:33;12.85;;;3.25;;
74064;SDS011;62421;51.412;5.432;2023-03-22T06:46:58;11.77;;;3.80;;
74064;SDS011;62421;51.412;5.432;2023-03-22T06:49:24;11.80;;;3.80;;
74064;SDS011;62421;51.412;5.432;2023-03-22T06:51:52;15.00;;;4.07;;
74064;SDS011;62421;51.412;5.432;2023-03-22T06:54:17;10.13;;;3.60;;
74064;SDS011;62421;51.412;5.432;2023-03-22T06:56:43;12.23;;;4.13;;
74064;SDS011;62421;51.412;5.432;2023-03-22T06:59:08;11.60;;;4.10;;
74064;SDS011;62421;51.412;5.432;2023-03-22T07:01:34;16.80;;;3.83;;
74064;SDS011;62421;51.412;5.432;2023-03-22T07:04:00;12.77;;;3.78;;
74064;SDS011;62421;51.412;5.432;2023-03-22T07:06:25;10.40;;;3.87;;
74064;SDS011;62421;51.412;5.432;2023-03-22T07:08:51;13.90;;;4.07;;
74064;SDS011;62421;51.412;5.432;2023-03-22T07:11:17;12.25;;;3.97;;
74064;SDS011;62421;51.412;5.432;2023-03-22T07:13:42;9.20;;;3.40;;
74064;SDS011;62421;51.412;5.432;2023-03-22T07:16:09;13.57;;;3.70;;
74064;SDS011;62421;51.412;5.432;2023-03-22T07:18:36;12.60;;;3.80;;
74064;SDS011;62421;51.412;5.432;2023-03-22T07:21:01;11.68;;;4.10;;
74064;SDS011;62421;51.412;5.432;2023-03-22T07:23:27;12.63;;;3.87;;
74064;SDS011;62421;51.412;5.432;2023-03-22T07:25:52;10.43;;;3.37;;
74064;SDS011;62421;51.412;5.432;2023-03-22T07:28:20;10.60;;;3.40;;
74064;SDS011;62421;51.412;5.432;2023-03-22T07:30:45;15.52;;;3.85;;
74064;SDS011;62421;51.412;5.432;2023-03-22T07:33:11;10.90;;;3.50;;
74064;SDS011;62421;51.412;5.432;2023-03-22T07:35:36;14.53;;;4.07;;
74064;SDS011;62421;51.412;5.432;2023-03-22T07:38:03;9.80;;;3.10;;
74064;SDS011;62421;51.412;5.432;2023-03-22T07:40:29;10.85;;;3.35;;
74064;SDS011;62421;51.412;5.432;2023-03-22T07:42:54;10.87;;;3.13;;
74064;SDS011;62421;51.412;5.432;2023-03-22T07:45:21;10.68;;;2.28;;
74064;SDS011;62421;51.412;5.432;2023-03-22T07:47:46;13.27;;;2.45;;
74064;SDS011;62421;51.412;5.432;2023-03-22T07:50:12;13.43;;;3.57;;
74064;SDS011;62421;51.412;5.432;2023-03-22T07:52:41;9.07;;;2.50;;
74064;SDS011;62421;51.412;5.432;2023-03-22T07:55:08;7.05;;;2.40;;
74064;SDS011;62421;51.412;5.432;2023-03-22T07:57:35;8.48;;;2.20;;
74064;SDS011;62421;51.412;5.432;2023-03-22T08:00:01;7.47;;;2.87;;
74064;SDS011;62421;51.412;5.432;2023-03-22T08:02:28;13.32;;;2.83;;
74064;SDS011;62421;51.412;5.432;2023-03-22T08:04:54;10.55;;;2.67;;
74064;SDS011;62421;51.412;5.432;2023-03-22T08:07:19;8.43;;;2.73;;
74064;SDS011;62421;51.412;5.432;2023-03-22T08:09:45;8.60;;;2.20;;
74064;SDS011;62421;51.412;5.432;2023-03-22T08:12:11;14.25;;;3.22;;
74064;SDS011;62421;51.412;5.432;2023-03-22T08:14:36;8.07;;;2.90;;
74064;SDS011;62421;51.412;5.432;2023-03-22T08:17:03;12.13;;;2.75;;
74064;SDS011;62421;51.412;5.432;2023-03-22T08:19:29;10.57;;;2.13;;
74064;SDS011;62421;51.412;5.432;2023-03-22T08:21:55;11.93;;;2.63;;
74064;SDS011;62421;51.412;5.432;2023-03-22T08:24:21;10.82;;;2.60;;
74064;SDS011;62421;51.412;5.432;2023-03-22T08:26:46;10.30;;;2.63;;
74064;SDS011;62421;51.412;5.432;2023-03-22T08:29:13;11.47;;;2.40;;
74064;SDS011;62421;51.412;5.432;2023-03-22T08:31:39;9.18;;;2.60;;
74064;SDS011;62421;51.412;5.432;2023-03-22T08:34:05;8.32;;;2.20;;
74064;SDS011;62421;51.412;5.432;2023-03-22T08:36:30;12.87;;;2.30;;
74064;SDS011;62421;51.412;5.432;2023-03-22T08:38:56;12.10;;;2.43;;
74064;SDS011;62421;51.412;5.432;2023-03-22T08:41:21;11.27;;;2.55;;
74064;SDS011;62421;51.412;5.432;2023-03-22T08:43:47;10.00;;;2.50;;
74064;SDS011;62421;51.412;5.432;2023-03-22T08:46:13;14.43;;;2.27;;
74064;SDS011;62421;51.412;5.432;2023-03-22T08:48:38;9.33;;;2.37;;
74064;SDS011;62421;51.412;5.432;2023-03-22T08:51:05;9.07;;;2.80;;
74064;SDS011;62421;51.412;5.432;2023-03-22T08:53:31;10.98;;;2.33;;
74064;SDS011;62421;51.412;5.432;2023-03-22T08:55:56;9.95;;;2.55;;
74064;SDS011;62421;51.412;5.432;2023-03-22T08:58:26;13.97;;;2.37;;
74064;SDS011;62421;51.412;5.432;2023-03-22T09:00:52;9.27;;;2.30;;
74064;SDS011;62421;51.412;5.432;2023-03-22T09:03:17;10.65;;;2.45;;
74064;SDS011;62421;51.412;5.432;2023-03-22T09:05:43;11.93;;;2.40;;
74064;SDS011;62421;51.412;5.432;2023-03-22T09:08:08;12.93;;;2.40;;
74064;SDS011;62421;51.412;5.432;2023-03-22T09:10:36;10.07;;;2.10;;
74064;SDS011;62421;51.412;5.432;2023-03-22T09:13:03;15.00;;;3.15;;
74064;SDS011;62421;51.412;5.432;2023-03-22T09:15:28;10.07;;;2.20;;
74064;SDS011;62421;51.412;5.432;2023-03-22T09:17:53;11.50;;;2.00;;
74064;SDS011;62421;51.412;5.432;2023-03-22T09:20:19;12.83;;;2.20;;
74064;SDS011;62421;51.412;5.432;2023-03-22T09:22:49;8.10;;;2.40;;
74064;SDS011;62421;51.412;5.432;2023-03-22T09:25:15;15.18;;;2.72;;
74064;SDS011;62421;51.412;5.432;2023-03-22T09:27:40;16.70;;;2.33;;
74064;SDS011;62421;51.412;5.432;2023-03-22T09:30:06;17.10;;;2.30;;
74064;SDS011;62421;51.412;5.432;2023-03-22T09:32:32;11.02;;;2.03;;
74064;SDS011;62421;51.412;5.432;2023-03-22T09:34:57;10.17;;;1.80;;
74064;SDS011;62421;51.412;5.432;2023-03-22T09:37:22;11.80;;;2.10;;
74064;SDS011;62421;51.412;5.432;2023-03-22T09:39:54;11.85;;;2.58;;
74064;SDS011;62421;51.412;5.432;2023-03-22T09:42:24;15.55;;;1.83;;
74064;SDS011;62421;51.412;5.432;2023-03-22T09:44:56;10.75;;;2.55;;
74064;SDS011;62421;51.412;5.432;2023-03-22T09:47:36;9.93;;;1.53;;
74064;SDS011;62421;51.412;5.432;2023-03-22T09:50:11;10.95;;;1.90;;
74064;SDS011;62421;51.412;5.432;2023-03-22T09:52:39;12.38;;;2.83;;
74064;SDS011;62421;51.412;5.432;2023-03-22T10:01:12;11.33;;;2.20;;
74064;SDS011;62421;51.412;5.432;2023-03-22T10:06:47;16.27;;;2.47;;
74064;SDS011;62421;51.412;5.432;2023-03-22T10:09:26;14.23;;;1.98;;
74064;SDS011;62421;51.412;5.432;2023-03-22T10:12:00;9.70;;;2.25;;
74064;SDS011;62421;51.412;5.432;2023-03-22T10:14:58;12.17;;;1.87;;
74064;SDS011;62421;51.412;5.432;2023-03-22T10:17:30;11.25;;;2.63;;
74064;SDS011;62421;51.412;5.432;2023-03-22T10:20:00;18.48;;;2.58;;
74064;SDS011;62421;51.412;5.432;2023-03-22T10:22:33;10.57;;;2.30;;
74064;SDS011;62421;51.412;5.432;2023-03-22T10:25:02;7.13;;;2.03;;
74064;SDS011;62421;51.412;5.432;2023-03-22T10:27:30;6.88;;;1.73;;
74064;SDS011;62421;51.412;5.432;2023-03-22T10:30:06;8.85;;;1.85;;
74064;SDS011;62421;51.412;5.432;2023-03-22T10:32:41;13.38;;;2.83;;
74064;SDS011;62421;51.412;5.432;2023-03-22T10:35:22;7.47;;;2.20;;
74064;SDS011;62421;51.412;5.432;2023-03-22T10:37:48;11.27;;;2.05;;
74064;SDS011;62421;51.412;5.432;2023-03-22T10:40:17;12.67;;;2.10;;
74064;SDS011;62421;51.412;5.432;2023-03-22T10:42:49;12.88;;;2.35;;
74064;SDS011;62421;51.412;5.432;2023-03-22T10:45:18;7.45;;;1.50;;
74064;SDS011;62421;51.412;5.432;2023-03-22T10:48:04;16.85;;;2.00;;
74064;SDS011;62421;51.412;5.432;2023-03-22T10:50:38;6.35;;;1.75;;
74064;SDS011;62421;51.412;5.432;2023-03-22T10:53:25;8.57;;;1.90;;
74064;SDS011;62421;51.412;5.432;2023-03-22T10:55:56;9.38;;;1.92;;
74064;SDS011;62421;51.412;5.432;2023-03-22T10:58:27;14.52;;;2.47;;
74064;SDS011;62421;51.412;5.432;2023-03-22T11:00:57;7.95;;;2.17;;
74064;SDS011;62421;51.412;5.432;2023-03-22T11:03:28;7.63;;;2.17;;
74064;SDS011;62421;51.412;5.432;2023-03-22T11:06:11;11.77;;;2.30;;
74064;SDS011;62421;51.412;5.432;2023-03-22T11:08:47;7.30;;;2.03;;
74064;SDS011;62421;51.412;5.432;2023-03-22T11:11:28;6.50;;;2.55;;
74064;SDS011;62421;51.412;5.432;2023-03-22T11:14:15;8.57;;;1.90;;
74064;SDS011;62421;51.412;5.432;2023-03-22T11:19:37;8.30;;;2.13;;
74064;SDS011;62421;51.412;5.432;2023-03-22T11:22:06;8.20;;;2.05;;
74064;SDS011;62421;51.412;5.432;2023-03-22T11:24:41;9.35;;;2.40;;
74064;SDS011;62421;51.412;5.432;2023-03-22T11:27:10;12.97;;;2.07;;
74064;SDS011;62421;51.412;5.432;2023-03-22T11:29:57;9.90;;;3.08;;
74064;SDS011;62421;51.412;5.432;2023-03-22T11:32:41;7.97;;;1.80;;
74064;SDS011;62421;51.412;5.432;2023-03-22T11:35:17;6.47;;;1.97;;
74064;SDS011;62421;51.412;5.432;2023-03-22T11:37:49;9.27;;;2.30;;
74064;SDS011;62421;51.412;5.432;2023-03-22T11:40:18;8.43;;;1.80;;
74064;SDS011;62421;51.412;5.432;2023-03-22T11:43:18;10.18;;;1.90;;
74064;SDS011;62421;51.412;5.432;2023-03-22T11:45:47;9.18;;;2.55;;
74064;SDS011;62421;51.412;5.432;2023-03-22T11:48:16;7.43;;;1.40;;
74064;SDS011;62421;51.412;5.432;2023-03-22T11:50:45;10.35;;;2.40;;
74064;SDS011;62421;51.412;5.432;2023-03-22T11:53:14;6.07;;;1.63;;
74064;SDS011;62421;51.412;5.432;2023-03-22T11:55:42;9.40;;;2.22;;
74064;SDS011;62421;51.412;5.432;2023-03-22T11:58:18;9.90;;;2.65;;
74064;SDS011;62421;51.412;5.432;2023-03-22T12:00:48;12.48;;;2.47;;
74064;SDS011;62421;51.412;5.432;2023-03-22T12:03:16;8.45;;;1.70;;
74064;SDS011;62421;51.412;5.432;2023-03-22T12:05:47;9.37;;;2.10;;
74064;SDS011;62421;51.412;5.432;2023-03-22T12:10:52;9.35;;;1.92;;
74064;SDS011;62421;51.412;5.432;2023-03-22T12:15:59;16.73;;;2.20;;
74064;SDS011;62421;51.412;5.432;2023-03-22T12:20:55;5.05;;;1.52;;
74064;SDS011;62421;51.412;5.432;2023-03-22T12:23:23;7.20;;;1.73;;
74064;SDS011;62421;51.412;5.432;2023-03-22T12:26:00;9.93;;;1.90;;
74064;SDS011;62421;51.412;5.432;2023-03-22T12:28:27;7.53;;;2.20;;
74064;SDS011;62421;51.412;5.432;2023-03-22T12:30:57;7.95;;;2.38;;
74064;SDS011;62421;51.412;5.432;2023-03-22T12:35:55;8.70;;;1.60;;
74064;SDS011;62421;51.412;5.432;2023-03-22T12:40:59;4.97;;;1.83;;
74064;SDS011;62421;51.412;5.432;2023-03-22T12:43:35;6.70;;;1.45;;
74064;SDS011;62421;51.412;5.432;2023-03-22T12:46:06;7.35;;;1.83;;
74064;SDS011;62421;51.412;5.432;2023-03-22T12:51:37;9.40;;;1.35;;
74064;SDS011;62421;51.412;5.432;2023-03-22T12:54:08;7.82;;;1.98;;
74064;SDS011;62421;51.412;5.432;2023-03-22T12:56:38;7.88;;;1.67;;
74064;SDS011;62421;51.412;5.432;2023-03-22T12:59:11;11.85;;;2.10;;
74064;SDS011;62421;51.412;5.432;2023-03-22T13:02:26;7.27;;;1.80;;
74064;SDS011;62421;51.412;5.432;2023-03-22T13:07:13;12.50;;;2.17;;
74064;SDS011;62421;51.412;5.432;2023-03-22T13:09:54;10.98;;;2.40;;
74064;SDS011;62421;51.412;5.432;2023-03-22T13:20:01;7.40;;;2.00;;
74064;SDS011;62421;51.412;5.432;2023-03-22T13:27:53;11.13;;;2.45;;
74064;SDS011;62421;51.412;5.432;2023-03-22T13:33:28;10.60;;;2.05;;
74064;SDS011;62421;51.412;5.432;2023-03-22T13:35:57;9.73;;;2.20;;
74064;SDS011;62421;51.412;5.432;2023-03-22T13:38:38;8.65;;;2.03;;
74064;SDS011;62421;51.412;5.432;2023-03-22T13:41:07;9.10;;;2.53;;
74064;SDS011;62421;51.412;5.432;2023-03-22T13:59:12;7.10;;;2.25;;
74064;SDS011;62421;51.412;5.432;2023-03-22T14:01:40;5.18;;;2.30;;
74064;SDS011;62421;51.412;5.432;2023-03-22T14:04:12;6.53;;;1.90;;
74064;SDS011;62421;51.412;5.432;2023-03-22T14:06:48;8.10;;;2.88;;
74064;SDS011;62421;51.412;5.432;2023-03-22T14:09:44;7.72;;;2.50;;
74064;SDS011;62421;51.412;5.432;2023-03-22T14:14:51;12.93;;;2.10;;
74064;SDS011;62421;51.412;5.432;2023-03-22T14:17:26;8.75;;;3.03;;
74064;SDS011;62421;51.412;5.432;2023-03-22T14:19:57;10.15;;;2.50;;
74064;SDS011;62421;51.412;5.432;2023-03-22T14:22:34;8.07;;;2.58;;
74064;SDS011;62421;51.412;5.432;2023-03-22T14:25:03;14.13;;;2.80;;
74064;SDS011;62421;51.412;5.432;2023-03-22T14:27:31;8.98;;;2.35;;
74064;SDS011;62421;51.412;5.432;2023-03-22T14:29:57;7.32;;;2.70;;
74064;SDS011;62421;51.412;5.432;2023-03-22T14:32:24;5.40;;;2.07;;
74064;SDS011;62421;51.412;5.432;2023-03-22T14:35:05;8.65;;;2.45;;
74064;SDS011;62421;51.412;5.432;2023-03-22T14:37:37;7.05;;;2.83;;
74064;SDS011;62421;51.412;5.432;2023-03-22T14:40:14;10.85;;;3.05;;
74064;SDS011;62421;51.412;5.432;2023-03-22T14:42:42;11.00;;;3.33;;
74064;SDS011;62421;51.412;5.432;2023-03-22T14:45:16;14.90;;;3.03;;
74064;SDS011;62421;51.412;5.432;2023-03-22T14:47:44;7.72;;;2.60;;
74064;SDS011;62421;51.412;5.432;2023-03-22T14:50:18;6.55;;;2.53;;
74064;SDS011;62421;51.412;5.432;2023-03-22T14:52:46;7.78;;;2.67;;
74064;SDS011;62421;51.412;5.432;2023-03-22T14:55:19;12.43;;;3.03;;
74064;SDS011;62421;51.412;5.432;2023-03-22T14:57:50;11.97;;;3.27;;
74064;SDS011;62421;51.412;5.432;2023-03-22T15:00:20;9.63;;;2.78;;
74064;SDS011;62421;51.412;5.432;2023-03-22T15:02:49;9.18;;;3.40;;
74064;SDS011;62421;51.412;5.432;2023-03-22T15:05:21;10.02;;;3.08;;
74064;SDS011;62421;51.412;5.432;2023-03-22T15:07:49;7.97;;;3.65;;
74064;SDS011;62421;51.412;5.432;2023-03-22T15:10:17;11.23;;;3.70;;
74064;SDS011;62421;51.412;5.432;2023-03-22T15:12:48;10.70;;;3.50;;
74064;SDS011;62421;51.412;5.432;2023-03-22T15:15:16;11.32;;;3.60;;
74064;SDS011;62421;51.412;5.432;2023-03-22T15:17:44;8.85;;;3.40;;
74064;SDS011;62421;51.412;5.432;2023-03-22T15:20:12;15.20;;;3.92;;
74064;SDS011;62421;51.412;5.432;2023-03-22T15:22:40;8.53;;;2.67;;
74064;SDS011;62421;51.412;5.432;2023-03-22T15:25:14;8.65;;;3.20;;
74064;SDS011;62421;51.412;5.432;2023-03-22T15:27:39;8.17;;;3.23;;
74064;SDS011;62421;51.412;5.432;2023-03-22T15:30:07;9.52;;;3.05;;
74064;SDS011;62421;51.412;5.432;2023-03-22T15:32:38;8.23;;;3.00;;
74064;SDS011;62421;51.412;5.432;2023-03-22T15:35:05;11.00;;;2.83;;
74064;SDS011;62421;51.412;5.432;2023-03-22T15:37:33;10.27;;;2.90;;
74064;SDS011;62421;51.412;5.432;2023-03-22T15:40:02;12.90;;;3.80;;
74064;SDS011;62421;51.412;5.432;2023-03-22T15:42:34;10.80;;;3.08;;
74064;SDS011;62421;51.412;5.432;2023-03-22T15:45:20;10.82;;;3.70;;
74064;SDS011;62421;51.412;5.432;2023-03-22T15:47:53;11.00;;;3.03;;
74064;SDS011;62421;51.412;5.432;2023-03-22T15:50:28;13.55;;;4.05;;
74064;SDS011;62421;51.412;5.432;2023-03-22T15:52:57;8.63;;;3.77;;
74064;SDS011;62421;51.412;5.432;2023-03-22T15:55:30;11.88;;;4.05;;
74064;SDS011;62421;51.412;5.432;2023-03-22T15:58:00;12.82;;;3.78;;
74064;SDS011;62421;51.412;5.432;2023-03-22T16:00:28;10.95;;;3.35;;
74064;SDS011;62421;51.412;5.432;2023-03-22T16:05:31;7.35;;;2.97;;
74064;SDS011;62421;51.412;5.432;2023-03-22T16:07:57;13.63;;;3.83;;
74064;SDS011;62421;51.412;5.432;2023-03-22T16:10:24;12.88;;;3.83;;
74064;SDS011;62421;51.412;5.432;2023-03-22T16:12:50;10.43;;;3.60;;
74064;SDS011;62421;51.412;5.432;2023-03-22T16:15:17;13.65;;;3.63;;
74064;SDS011;62421;51.412;5.432;2023-03-22T16:17:45;9.75;;;3.10;;
74064;SDS011;62421;51.412;5.432;2023-03-22T16:20:11;13.90;;;3.85;;
74064;SDS011;62421;51.412;5.432;2023-03-22T16:22:38;8.57;;;2.97;;
74064;SDS011;62421;51.412;5.432;2023-03-22T16:25:04;7.72;;;3.45;;
74064;SDS011;62421;51.412;5.432;2023-03-22T16:27:29;10.82;;;3.75;;
74064;SDS011;62421;51.412;5.432;2023-03-22T16:29:55;12.37;;;3.70;;
74064;SDS011;62421;51.412;5.432;2023-03-22T16:32:24;8.33;;;3.43;;
74064;SDS011;62421;51.412;5.432;2023-03-22T16:34:52;14.18;;;3.72;;
74064;SDS011;62421;51.412;5.432;2023-03-22T16:37:19;8.43;;;3.60;;
74064;SDS011;62421;51.412;5.432;2023-03-22T16:39:47;14.02;;;3.80;;